sensor_id;sensor_type;location;lat;lon;timestamp;P1;durP1;ratioP1;P2;durP2;ratioP2
22435;SDS011;11385;50.822;4.324;2023-03-02T00:01:05;15.72;;;10.98;;
22435;SDS011;11385;50.822;4.324;2023-03-02T00:03:35;17.63;;;11.03;;
22435;SDS011;11385;50.822;4.324;2023-03-02T00:06:05;16.75;;;11.05;;
22435;SDS011;11385;50.822;4.324;2023-03-02T00:08:34;19.20;;;10.75;;
22435;SDS011;11385;50.822;4.324;2023-03-02T00:11:01;18.95;;;11.57;;
22435;SDS011;11385;50.822;4.324;2023-03-02T00:13:28;17.82;;;11.83;;
22435;SDS011;11385;50.822;4.324;2023-03-02T00:15:55;19.75;;;11.73;;
22435;SDS011;11385;50.822;4.324;2023-03-02T00:18:22;17.25;;;10.90;;
22435;SDS011;11385;50.822;4.324;2023-03-02T00:20:49;15.48;;;10.95;;
22435;SDS011;11385;50.822;4.324;2023-03-02T00:23:15;17.77;;;10.58;;
22435;SDS011;11385;50.822;4.324;2023-03-02T00:25:42;20.82;;;11.40;;
22435;SDS011;11385;50.822;4.324;2023-03-02T00:28:08;16.15;;;10.43;;
22435;SDS011;11385;50.822;4.324;2023-03-02T00:30:36;19.15;;;11.75;;
22435;SDS011;11385;50.822;4.324;2023-03-02T00:33:03;17.30;;;10.35;;
22435;SDS011;11385;50.822;4.324;2023-03-02T00:35:30;16.82;;;10.80;;
22435;SDS011;11385;50.822;4.324;2023-03-02T00:38:03;15.88;;;10.32;;
22435;SDS011;11385;50.822;4.324;2023-03-02T00:40:29;16.32;;;9.83;;
22435;SDS011;11385;50.822;4.324;2023-03-02T00:42:56;20.88;;;10.50;;
22435;SDS011;11385;50.822;4.324;2023-03-02T00:45:23;17.17;;;9.90;;
22435;SDS011;11385;50.822;4.324;2023-03-02T00:47:49;16.75;;;9.75;;
22435;SDS011;11385;50.822;4.324;2023-03-02T00:50:16;17.85;;;10.15;;
22435;SDS011;11385;50.822;4.324;2023-03-02T00:52:43;16.85;;;10.13;;
22435;SDS011;11385;50.822;4.324;2023-03-02T00:55:10;17.45;;;10.93;;
22435;SDS011;11385;50.822;4.324;2023-03-02T00:57:36;18.17;;;10.13;;
22435;SDS011;11385;50.822;4.324;2023-03-02T01:00:03;14.45;;;9.23;;
22435;SDS011;11385;50.822;4.324;2023-03-02T01:02:30;14.87;;;10.50;;
22435;SDS011;11385;50.822;4.324;2023-03-02T01:04:57;19.85;;;10.30;;
22435;SDS011;11385;50.822;4.324;2023-03-02T01:07:24;17.10;;;9.80;;
22435;SDS011;11385;50.822;4.324;2023-03-02T01:09:52;18.77;;;10.10;;
22435;SDS011;11385;50.822;4.324;2023-03-02T01:12:19;18.45;;;9.50;;
22435;SDS011;11385;50.822;4.324;2023-03-02T01:14:46;16.50;;;10.35;;
22435;SDS011;11385;50.822;4.324;2023-03-02T01:17:15;17.42;;;9.85;;
22435;SDS011;11385;50.822;4.324;2023-03-02T01:19:42;22.13;;;10.90;;
22435;SDS011;11385;50.822;4.324;2023-03-02T01:22:09;19.82;;;10.30;;
22435;SDS011;11385;50.822;4.324;2023-03-02T01:24:35;15.38;;;9.33;;
22435;SDS011;11385;50.822;4.324;2023-03-02T01:27:03;16.00;;;9.93;;
22435;SDS011;11385;50.822;4.324;2023-03-02T01:29:29;15.48;;;10.00;;
22435;SDS011;11385;50.822;4.324;2023-03-02T01:31:56;15.48;;;9.28;;
22435;SDS011;11385;50.822;4.324;2023-03-02T01:34:23;17.10;;;9.93;;
22435;SDS011;11385;50.822;4.324;2023-03-02T01:36:49;16.82;;;10.00;;
22435;SDS011;11385;50.822;4.324;2023-03-02T01:39:16;13.70;;;9.03;;
22435;SDS011;11385;50.822;4.324;2023-03-02T01:41:45;16.65;;;9.05;;
22435;SDS011;11385;50.822;4.324;2023-03-02T01:46:50;14.28;;;9.78;;
22435;SDS011;11385;50.822;4.324;2023-03-02T01:49:17;13.95;;;8.73;;
22435;SDS011;11385;50.822;4.324;2023-03-02T01:51:44;14.90;;;9.13;;
22435;SDS011;11385;50.822;4.324;2023-03-02T01:54:13;14.43;;;8.88;;
22435;SDS011;11385;50.822;4.324;2023-03-02T01:56:45;15.90;;;9.10;;
22435;SDS011;11385;50.822;4.324;2023-03-02T01:59:13;16.82;;;9.15;;
22435;SDS011;11385;50.822;4.324;2023-03-02T02:01:44;16.55;;;9.73;;
22435;SDS011;11385;50.822;4.324;2023-03-02T02:04:15;15.00;;;8.75;;
22435;SDS011;11385;50.822;4.324;2023-03-02T02:06:44;14.58;;;9.10;;
22435;SDS011;11385;50.822;4.324;2023-03-02T02:09:16;14.30;;;8.98;;
22435;SDS011;11385;50.822;4.324;2023-03-02T02:11:44;14.68;;;9.60;;
22435;SDS011;11385;50.822;4.324;2023-03-02T02:14:11;15.23;;;9.30;;
22435;SDS011;11385;50.822;4.324;2023-03-02T02:16:38;14.20;;;8.63;;
22435;SDS011;11385;50.822;4.324;2023-03-02T02:19:11;13.90;;;8.58;;
22435;SDS011;11385;50.822;4.324;2023-03-02T02:21:40;12.15;;;8.53;;
22435;SDS011;11385;50.822;4.324;2023-03-02T02:24:09;16.15;;;8.93;;
22435;SDS011;11385;50.822;4.324;2023-03-02T02:26:46;14.25;;;9.15;;
22435;SDS011;11385;50.822;4.324;2023-03-02T02:29:17;17.77;;;9.05;;
22435;SDS011;11385;50.822;4.324;2023-03-02T02:31:52;12.98;;;8.03;;
22435;SDS011;11385;50.822;4.324;2023-03-02T02:34:23;15.30;;;9.63;;
22435;SDS011;11385;50.822;4.324;2023-03-02T02:36:53;14.20;;;8.98;;
22435;SDS011;11385;50.822;4.324;2023-03-02T02:39:24;12.60;;;8.43;;
22435;SDS011;11385;50.822;4.324;2023-03-02T02:41:54;15.20;;;9.25;;
22435;SDS011;11385;50.822;4.324;2023-03-02T02:44:24;15.00;;;8.78;;
22435;SDS011;11385;50.822;4.324;2023-03-02T02:46:51;15.25;;;9.00;;
22435;SDS011;11385;50.822;4.324;2023-03-02T02:49:27;13.50;;;8.70;;
22435;SDS011;11385;50.822;4.324;2023-03-02T02:51:54;14.73;;;8.65;;
22435;SDS011;11385;50.822;4.324;2023-03-02T02:54:21;15.08;;;8.58;;
22435;SDS011;11385;50.822;4.324;2023-03-02T02:56:49;12.15;;;8.00;;
22435;SDS011;11385;50.822;4.324;2023-03-02T02:59:20;14.13;;;9.15;;
22435;SDS011;11385;50.822;4.324;2023-03-02T03:01:53;15.00;;;8.50;;
22435;SDS011;11385;50.822;4.324;2023-03-02T03:04:23;14.63;;;8.20;;
22435;SDS011;11385;50.822;4.324;2023-03-02T03:06:53;14.75;;;9.15;;
22435;SDS011;11385;50.822;4.324;2023-03-02T03:09:22;10.43;;;6.87;;
22435;SDS011;11385;50.822;4.324;2023-03-02T03:11:51;13.35;;;8.05;;
22435;SDS011;11385;50.822;4.324;2023-03-02T03:14:25;16.10;;;8.38;;
22435;SDS011;11385;50.822;4.324;2023-03-02T03:16:54;14.40;;;8.43;;
22435;SDS011;11385;50.822;4.324;2023-03-02T03:19:22;12.88;;;8.50;;
22435;SDS011;11385;50.822;4.324;2023-03-02T03:21:52;11.43;;;8.20;;
22435;SDS011;11385;50.822;4.324;2023-03-02T03:24:21;17.37;;;9.15;;
22435;SDS011;11385;50.822;4.324;2023-03-02T03:26:48;13.75;;;8.35;;
22435;SDS011;11385;50.822;4.324;2023-03-02T03:29:15;13.60;;;8.93;;
22435;SDS011;11385;50.822;4.324;2023-03-02T03:31:44;12.20;;;8.43;;
22435;SDS011;11385;50.822;4.324;2023-03-02T03:34:10;13.53;;;8.70;;
22435;SDS011;11385;50.822;4.324;2023-03-02T03:36:37;14.18;;;9.15;;
22435;SDS011;11385;50.822;4.324;2023-03-02T03:39:04;12.65;;;9.03;;
22435;SDS011;11385;50.822;4.324;2023-03-02T03:41:31;12.98;;;8.50;;
22435;SDS011;11385;50.822;4.324;2023-03-02T03:43:58;12.93;;;8.33;;
22435;SDS011;11385;50.822;4.324;2023-03-02T03:46:25;16.37;;;9.33;;
22435;SDS011;11385;50.822;4.324;2023-03-02T03:48:51;12.93;;;8.53;;
22435;SDS011;11385;50.822;4.324;2023-03-02T03:51:19;15.72;;;9.38;;
22435;SDS011;11385;50.822;4.324;2023-03-02T03:53:46;11.97;;;8.13;;
22435;SDS011;11385;50.822;4.324;2023-03-02T03:56:16;12.30;;;8.53;;
22435;SDS011;11385;50.822;4.324;2023-03-02T03:58:42;16.90;;;9.00;;
22435;SDS011;11385;50.822;4.324;2023-03-02T04:01:09;14.80;;;8.90;;
22435;SDS011;11385;50.822;4.324;2023-03-02T04:03:35;12.82;;;8.80;;
22435;SDS011;11385;50.822;4.324;2023-03-02T04:06:02;14.25;;;8.60;;
22435;SDS011;11385;50.822;4.324;2023-03-02T04:08:29;14.90;;;8.80;;
22435;SDS011;11385;50.822;4.324;2023-03-02T04:10:56;13.98;;;8.50;;
22435;SDS011;11385;50.822;4.324;2023-03-02T04:13:22;13.72;;;8.35;;
22435;SDS011;11385;50.822;4.324;2023-03-02T04:15:49;13.68;;;8.75;;
22435;SDS011;11385;50.822;4.324;2023-03-02T04:18:16;15.58;;;9.20;;
22435;SDS011;11385;50.822;4.324;2023-03-02T04:20:42;16.90;;;9.20;;
22435;SDS011;11385;50.822;4.324;2023-03-02T04:23:09;19.65;;;8.88;;
22435;SDS011;11385;50.822;4.324;2023-03-02T04:25:35;14.78;;;8.55;;
22435;SDS011;11385;50.822;4.324;2023-03-02T04:28:02;11.97;;;7.97;;
22435;SDS011;11385;50.822;4.324;2023-03-02T04:30:29;14.07;;;8.60;;
22435;SDS011;11385;50.822;4.324;2023-03-02T04:32:58;15.50;;;8.55;;
22435;SDS011;11385;50.822;4.324;2023-03-02T04:35:25;14.60;;;8.55;;
22435;SDS011;11385;50.822;4.324;2023-03-02T04:37:51;13.45;;;8.38;;
22435;SDS011;11385;50.822;4.324;2023-03-02T04:40:18;15.90;;;8.20;;
22435;SDS011;11385;50.822;4.324;2023-03-02T04:42:45;14.25;;;8.80;;
22435;SDS011;11385;50.822;4.324;2023-03-02T04:45:12;12.95;;;8.55;;
22435;SDS011;11385;50.822;4.324;2023-03-02T04:47:39;13.55;;;8.30;;
22435;SDS011;11385;50.822;4.324;2023-03-02T04:50:07;13.15;;;8.70;;
22435;SDS011;11385;50.822;4.324;2023-03-02T04:52:35;13.13;;;8.40;;
22435;SDS011;11385;50.822;4.324;2023-03-02T04:55:02;15.00;;;8.10;;
22435;SDS011;11385;50.822;4.324;2023-03-02T04:57:29;13.05;;;8.10;;
22435;SDS011;11385;50.822;4.324;2023-03-02T04:59:56;16.75;;;8.78;;
22435;SDS011;11385;50.822;4.324;2023-03-02T05:02:22;11.75;;;7.35;;
22435;SDS011;11385;50.822;4.324;2023-03-02T05:04:49;12.60;;;7.87;;
22435;SDS011;11385;50.822;4.324;2023-03-02T05:07:16;12.80;;;8.43;;
22435;SDS011;11385;50.822;4.324;2023-03-02T05:09:42;16.73;;;8.43;;
22435;SDS011;11385;50.822;4.324;2023-03-02T05:12:09;16.48;;;8.35;;
22435;SDS011;11385;50.822;4.324;2023-03-02T05:14:36;12.70;;;8.35;;
22435;SDS011;11385;50.822;4.324;2023-03-02T05:17:02;12.73;;;7.53;;
22435;SDS011;11385;50.822;4.324;2023-03-02T05:19:29;14.60;;;8.40;;
22435;SDS011;11385;50.822;4.324;2023-03-02T05:21:55;12.58;;;8.53;;
22435;SDS011;11385;50.822;4.324;2023-03-02T05:24:22;15.80;;;7.90;;
22435;SDS011;11385;50.822;4.324;2023-03-02T05:26:49;14.38;;;8.93;;
22435;SDS011;11385;50.822;4.324;2023-03-02T05:29:16;15.48;;;8.60;;
22435;SDS011;11385;50.822;4.324;2023-03-02T05:31:43;14.68;;;8.20;;
22435;SDS011;11385;50.822;4.324;2023-03-02T05:34:11;14.18;;;8.55;;
22435;SDS011;11385;50.822;4.324;2023-03-02T05:36:40;14.07;;;8.70;;
22435;SDS011;11385;50.822;4.324;2023-03-02T05:39:08;16.87;;;8.80;;
22435;SDS011;11385;50.822;4.324;2023-03-02T05:41:35;14.43;;;8.68;;
22435;SDS011;11385;50.822;4.324;2023-03-02T05:44:02;13.75;;;8.45;;
22435;SDS011;11385;50.822;4.324;2023-03-02T05:46:30;13.00;;;8.30;;
22435;SDS011;11385;50.822;4.324;2023-03-02T05:48:57;13.32;;;8.33;;
22435;SDS011;11385;50.822;4.324;2023-03-02T05:51:23;16.05;;;8.45;;
22435;SDS011;11385;50.822;4.324;2023-03-02T05:53:50;15.00;;;8.73;;
22435;SDS011;11385;50.822;4.324;2023-03-02T05:56:16;12.23;;;7.83;;
22435;SDS011;11385;50.822;4.324;2023-03-02T05:58:45;14.43;;;8.03;;
22435;SDS011;11385;50.822;4.324;2023-03-02T06:01:11;11.38;;;7.67;;
22435;SDS011;11385;50.822;4.324;2023-03-02T06:03:38;14.05;;;8.33;;
22435;SDS011;11385;50.822;4.324;2023-03-02T06:06:05;11.80;;;7.65;;
22435;SDS011;11385;50.822;4.324;2023-03-02T06:08:31;13.30;;;8.53;;
22435;SDS011;11385;50.822;4.324;2023-03-02T06:10:58;13.40;;;8.20;;
22435;SDS011;11385;50.822;4.324;2023-03-02T06:13:26;11.97;;;8.30;;
22435;SDS011;11385;50.822;4.324;2023-03-02T06:15:53;15.08;;;8.18;;
22435;SDS011;11385;50.822;4.324;2023-03-02T06:18:20;14.25;;;8.45;;
22435;SDS011;11385;50.822;4.324;2023-03-02T06:20:48;12.00;;;7.72;;
22435;SDS011;11385;50.822;4.324;2023-03-02T06:23:15;15.55;;;8.90;;
22435;SDS011;11385;50.822;4.324;2023-03-02T06:25:42;16.32;;;10.15;;
22435;SDS011;11385;50.822;4.324;2023-03-02T06:28:11;12.05;;;8.53;;
22435;SDS011;11385;50.822;4.324;2023-03-02T06:30:39;13.05;;;7.97;;
22435;SDS011;11385;50.822;4.324;2023-03-02T06:33:06;14.45;;;8.35;;
22435;SDS011;11385;50.822;4.324;2023-03-02T06:35:33;16.50;;;8.55;;
22435;SDS011;11385;50.822;4.324;2023-03-02T06:38:00;11.25;;;7.67;;
22435;SDS011;11385;50.822;4.324;2023-03-02T06:40:26;12.95;;;7.53;;
22435;SDS011;11385;50.822;4.324;2023-03-02T06:42:53;13.78;;;7.78;;
22435;SDS011;11385;50.822;4.324;2023-03-02T06:45:19;14.13;;;7.85;;
22435;SDS011;11385;50.822;4.324;2023-03-02T06:47:46;15.18;;;7.62;;
22435;SDS011;11385;50.822;4.324;2023-03-02T06:50:13;16.93;;;8.25;;
22435;SDS011;11385;50.822;4.324;2023-03-02T06:52:40;15.80;;;9.00;;
22435;SDS011;11385;50.822;4.324;2023-03-02T06:55:07;15.80;;;8.90;;
22435;SDS011;11385;50.822;4.324;2023-03-02T06:57:34;13.53;;;8.08;;
22435;SDS011;11385;50.822;4.324;2023-03-02T07:00:02;13.90;;;8.13;;
22435;SDS011;11385;50.822;4.324;2023-03-02T07:02:33;13.75;;;8.13;;
22435;SDS011;11385;50.822;4.324;2023-03-02T07:05:00;16.70;;;9.35;;
22435;SDS011;11385;50.822;4.324;2023-03-02T07:07:27;16.70;;;8.83;;
22435;SDS011;11385;50.822;4.324;2023-03-02T07:09:54;17.40;;;8.70;;
22435;SDS011;11385;50.822;4.324;2023-03-02T07:12:20;16.95;;;9.68;;
22435;SDS011;11385;50.822;4.324;2023-03-02T07:14:47;20.00;;;8.68;;
22435;SDS011;11385;50.822;4.324;2023-03-02T07:17:13;15.45;;;8.35;;
22435;SDS011;11385;50.822;4.324;2023-03-02T07:19:40;15.53;;;9.20;;
22435;SDS011;11385;50.822;4.324;2023-03-02T07:22:07;13.13;;;7.92;;
22435;SDS011;11385;50.822;4.324;2023-03-02T07:24:33;17.35;;;8.53;;
22435;SDS011;11385;50.822;4.324;2023-03-02T07:27:00;16.82;;;8.25;;
22435;SDS011;11385;50.822;4.324;2023-03-02T07:29:27;12.33;;;7.40;;
22435;SDS011;11385;50.822;4.324;2023-03-02T07:31:53;14.53;;;8.10;;
22435;SDS011;11385;50.822;4.324;2023-03-02T07:34:23;12.78;;;8.23;;
22435;SDS011;11385;50.822;4.324;2023-03-02T07:36:50;15.72;;;8.50;;
22435;SDS011;11385;50.822;4.324;2023-03-02T07:39:17;15.50;;;8.48;;
22435;SDS011;11385;50.822;4.324;2023-03-02T07:41:44;14.00;;;8.85;;
22435;SDS011;11385;50.822;4.324;2023-03-02T07:44:11;18.50;;;9.13;;
22435;SDS011;11385;50.822;4.324;2023-03-02T07:46:38;14.53;;;8.68;;
22435;SDS011;11385;50.822;4.324;2023-03-02T07:49:05;12.88;;;7.90;;
22435;SDS011;11385;50.822;4.324;2023-03-02T07:51:31;16.85;;;9.58;;
22435;SDS011;11385;50.822;4.324;2023-03-02T07:53:58;14.75;;;8.85;;
22435;SDS011;11385;50.822;4.324;2023-03-02T07:56:27;13.35;;;8.50;;
22435;SDS011;11385;50.822;4.324;2023-03-02T07:58:53;14.23;;;8.70;;
22435;SDS011;11385;50.822;4.324;2023-03-02T08:01:21;16.80;;;9.20;;
22435;SDS011;11385;50.822;4.324;2023-03-02T08:03:47;17.35;;;9.25;;
22435;SDS011;11385;50.822;4.324;2023-03-02T08:06:15;13.08;;;8.48;;
22435;SDS011;11385;50.822;4.324;2023-03-02T08:08:42;13.62;;;8.28;;
22435;SDS011;11385;50.822;4.324;2023-03-02T08:11:10;15.08;;;8.98;;
22435;SDS011;11385;50.822;4.324;2023-03-02T08:13:38;14.90;;;9.00;;
22435;SDS011;11385;50.822;4.324;2023-03-02T08:16:06;22.30;;;9.58;;
22435;SDS011;11385;50.822;4.324;2023-03-02T08:18:34;16.70;;;9.48;;
22435;SDS011;11385;50.822;4.324;2023-03-02T08:21:02;20.52;;;10.00;;
22435;SDS011;11385;50.822;4.324;2023-03-02T08:23:30;14.47;;;9.05;;
22435;SDS011;11385;50.822;4.324;2023-03-02T08:25:56;16.32;;;9.68;;
22435;SDS011;11385;50.822;4.324;2023-03-02T08:28:23;18.73;;;9.13;;
22435;SDS011;11385;50.822;4.324;2023-03-02T08:30:54;15.75;;;9.00;;
22435;SDS011;11385;50.822;4.324;2023-03-02T08:33:22;16.32;;;9.08;;
22435;SDS011;11385;50.822;4.324;2023-03-02T08:35:58;16.25;;;8.75;;
22435;SDS011;11385;50.822;4.324;2023-03-02T08:38:27;13.45;;;9.03;;
22435;SDS011;11385;50.822;4.324;2023-03-02T08:40:55;15.23;;;9.38;;
22435;SDS011;11385;50.822;4.324;2023-03-02T08:43:22;15.10;;;8.73;;
22435;SDS011;11385;50.822;4.324;2023-03-02T08:45:51;16.60;;;9.08;;
22435;SDS011;11385;50.822;4.324;2023-03-02T08:48:20;16.05;;;9.65;;
22435;SDS011;11385;50.822;4.324;2023-03-02T08:50:54;15.28;;;8.90;;
22435;SDS011;11385;50.822;4.324;2023-03-02T08:53:25;17.52;;;9.25;;
22435;SDS011;11385;50.822;4.324;2023-03-02T08:55:52;17.80;;;8.80;;
22435;SDS011;11385;50.822;4.324;2023-03-02T08:58:18;18.10;;;9.85;;
22435;SDS011;11385;50.822;4.324;2023-03-02T09:00:45;15.50;;;9.88;;
22435;SDS011;11385;50.822;4.324;2023-03-02T09:03:12;15.68;;;9.50;;
22435;SDS011;11385;50.822;4.324;2023-03-02T09:05:39;14.98;;;9.25;;
22435;SDS011;11385;50.822;4.324;2023-03-02T09:08:06;17.60;;;9.90;;
22435;SDS011;11385;50.822;4.324;2023-03-02T09:10:34;16.75;;;9.03;;
22435;SDS011;11385;50.822;4.324;2023-03-02T09:13:01;18.00;;;10.48;;
22435;SDS011;11385;50.822;4.324;2023-03-02T09:15:28;17.70;;;8.88;;
22435;SDS011;11385;50.822;4.324;2023-03-02T09:17:55;19.20;;;10.13;;
22435;SDS011;11385;50.822;4.324;2023-03-02T09:20:22;16.90;;;9.50;;
22435;SDS011;11385;50.822;4.324;2023-03-02T09:22:49;21.93;;;9.78;;
22435;SDS011;11385;50.822;4.324;2023-03-02T09:25:16;17.32;;;9.28;;
22435;SDS011;11385;50.822;4.324;2023-03-02T09:27:44;14.73;;;9.65;;
22435;SDS011;11385;50.822;4.324;2023-03-02T09:30:12;17.00;;;9.58;;
22435;SDS011;11385;50.822;4.324;2023-03-02T09:32:39;15.30;;;9.45;;
22435;SDS011;11385;50.822;4.324;2023-03-02T09:35:06;17.20;;;9.50;;
22435;SDS011;11385;50.822;4.324;2023-03-02T09:37:33;17.15;;;9.65;;
22435;SDS011;11385;50.822;4.324;2023-03-02T09:40:02;16.65;;;9.03;;
22435;SDS011;11385;50.822;4.324;2023-03-02T09:42:41;19.80;;;10.43;;
22435;SDS011;11385;50.822;4.324;2023-03-02T09:45:24;21.80;;;9.58;;
22435;SDS011;11385;50.822;4.324;2023-03-02T09:47:56;14.87;;;9.20;;
22435;SDS011;11385;50.822;4.324;2023-03-02T09:50:30;17.05;;;11.03;;
22435;SDS011;11385;50.822;4.324;2023-03-02T09:55:35;20.15;;;11.48;;
22435;SDS011;11385;50.822;4.324;2023-03-02T09:58:05;19.67;;;11.35;;
22435;SDS011;11385;50.822;4.324;2023-03-02T10:00:38;18.57;;;10.23;;
22435;SDS011;11385;50.822;4.324;2023-03-02T10:03:11;22.02;;;11.53;;
22435;SDS011;11385;50.822;4.324;2023-03-02T10:05:45;17.87;;;10.68;;
22435;SDS011;11385;50.822;4.324;2023-03-02T10:08:16;20.92;;;12.10;;
22435;SDS011;11385;50.822;4.324;2023-03-02T10:10:46;15.25;;;8.83;;
22435;SDS011;11385;50.822;4.324;2023-03-02T10:13:27;22.65;;;12.03;;
22435;SDS011;11385;50.822;4.324;2023-03-02T10:16:03;18.75;;;11.85;;
22435;SDS011;11385;50.822;4.324;2023-03-02T10:21:17;17.65;;;10.75;;
22435;SDS011;11385;50.822;4.324;2023-03-02T10:23:52;19.85;;;11.43;;
22435;SDS011;11385;50.822;4.324;2023-03-02T10:26:25;19.07;;;12.13;;
22435;SDS011;11385;50.822;4.324;2023-03-02T10:29:15;20.02;;;13.13;;
22435;SDS011;11385;50.822;4.324;2023-03-02T10:31:59;20.95;;;11.83;;
22435;SDS011;11385;50.822;4.324;2023-03-02T10:34:31;21.12;;;13.13;;
22435;SDS011;11385;50.822;4.324;2023-03-02T10:37:01;18.80;;;11.95;;
22435;SDS011;11385;50.822;4.324;2023-03-02T10:39:27;18.98;;;11.43;;
22435;SDS011;11385;50.822;4.324;2023-03-02T10:41:56;19.70;;;13.00;;
22435;SDS011;11385;50.822;4.324;2023-03-02T10:44:28;19.40;;;12.58;;
22435;SDS011;11385;50.822;4.324;2023-03-02T10:49:26;21.17;;;12.63;;
22435;SDS011;11385;50.822;4.324;2023-03-02T10:51:57;23.35;;;13.20;;
22435;SDS011;11385;50.822;4.324;2023-03-02T10:54:27;17.70;;;10.95;;
22435;SDS011;11385;50.822;4.324;2023-03-02T10:56:57;26.42;;;13.65;;
22435;SDS011;11385;50.822;4.324;2023-03-02T10:59:31;23.25;;;13.55;;
22435;SDS011;11385;50.822;4.324;2023-03-02T11:02:02;22.60;;;13.13;;
22435;SDS011;11385;50.822;4.324;2023-03-02T11:04:36;18.92;;;12.70;;
22435;SDS011;11385;50.822;4.324;2023-03-02T11:07:07;20.40;;;13.08;;
22435;SDS011;11385;50.822;4.324;2023-03-02T11:09:54;21.85;;;13.95;;
22435;SDS011;11385;50.822;4.324;2023-03-02T11:12:17;24.37;;;14.15;;
22435;SDS011;11385;50.822;4.324;2023-03-02T11:14:44;18.27;;;12.75;;
22435;SDS011;11385;50.822;4.324;2023-03-02T11:17:23;22.95;;;13.65;;
22435;SDS011;11385;50.822;4.324;2023-03-02T11:19:56;22.32;;;14.03;;
22435;SDS011;11385;50.822;4.324;2023-03-02T11:22:31;24.65;;;14.75;;
22435;SDS011;11385;50.822;4.324;2023-03-02T11:24:59;24.32;;;14.10;;
22435;SDS011;11385;50.822;4.324;2023-03-02T11:27:32;25.23;;;14.30;;
22435;SDS011;11385;50.822;4.324;2023-03-02T11:30:02;20.10;;;12.93;;
22435;SDS011;11385;50.822;4.324;2023-03-02T11:32:34;16.73;;;10.32;;
22435;SDS011;11385;50.822;4.324;2023-03-02T11:35:09;25.90;;;14.25;;
22435;SDS011;11385;50.822;4.324;2023-03-02T11:37:42;22.40;;;13.72;;
22435;SDS011;11385;50.822;4.324;2023-03-02T11:40:29;26.23;;;14.47;;
22435;SDS011;11385;50.822;4.324;2023-03-02T11:42:58;23.38;;;14.73;;
22435;SDS011;11385;50.822;4.324;2023-03-02T11:45:27;27.22;;;14.80;;
22435;SDS011;11385;50.822;4.324;2023-03-02T11:47:57;22.35;;;15.00;;
22435;SDS011;11385;50.822;4.324;2023-03-02T11:50:31;24.23;;;14.28;;
22435;SDS011;11385;50.822;4.324;2023-03-02T11:53:00;27.05;;;15.32;;
22435;SDS011;11385;50.822;4.324;2023-03-02T11:57:59;22.87;;;15.03;;
22435;SDS011;11385;50.822;4.324;2023-03-02T12:00:31;24.50;;;14.60;;
22435;SDS011;11385;50.822;4.324;2023-03-02T12:05:30;26.35;;;14.78;;
22435;SDS011;11385;50.822;4.324;2023-03-02T12:08:02;28.07;;;15.75;;
22435;SDS011;11385;50.822;4.324;2023-03-02T12:10:35;26.55;;;15.00;;
22435;SDS011;11385;50.822;4.324;2023-03-02T12:13:11;25.52;;;15.70;;
22435;SDS011;11385;50.822;4.324;2023-03-02T12:15:38;23.65;;;14.60;;
22435;SDS011;11385;50.822;4.324;2023-03-02T12:20:57;26.07;;;15.05;;
22435;SDS011;11385;50.822;4.324;2023-03-02T12:23:28;25.02;;;15.63;;
22435;SDS011;11385;50.822;4.324;2023-03-02T12:26:03;24.12;;;14.63;;
22435;SDS011;11385;50.822;4.324;2023-03-02T12:28:36;25.68;;;13.78;;
22435;SDS011;11385;50.822;4.324;2023-03-02T12:31:08;29.00;;;14.58;;
22435;SDS011;11385;50.822;4.324;2023-03-02T12:33:40;30.40;;;15.80;;
22435;SDS011;11385;50.822;4.324;2023-03-02T12:36:13;28.23;;;14.87;;
22435;SDS011;11385;50.822;4.324;2023-03-02T12:38:51;23.80;;;14.45;;
22435;SDS011;11385;50.822;4.324;2023-03-02T12:41:23;26.93;;;15.00;;
22435;SDS011;11385;50.822;4.324;2023-03-02T12:43:56;24.23;;;14.13;;
22435;SDS011;11385;50.822;4.324;2023-03-02T12:46:28;24.10;;;14.85;;
22435;SDS011;11385;50.822;4.324;2023-03-02T12:49:00;27.48;;;15.23;;
22435;SDS011;11385;50.822;4.324;2023-03-02T12:51:43;25.68;;;15.55;;
22435;SDS011;11385;50.822;4.324;2023-03-02T12:54:29;23.02;;;14.87;;
22435;SDS011;11385;50.822;4.324;2023-03-02T12:57:01;24.75;;;14.93;;
22435;SDS011;11385;50.822;4.324;2023-03-02T12:59:31;26.65;;;16.52;;
22435;SDS011;11385;50.822;4.324;2023-03-02T13:02:04;24.90;;;15.15;;
22435;SDS011;11385;50.822;4.324;2023-03-02T13:04:40;24.12;;;14.93;;
22435;SDS011;11385;50.822;4.324;2023-03-02T13:07:13;30.88;;;16.12;;
22435;SDS011;11385;50.822;4.324;2023-03-02T13:09:43;25.05;;;15.60;;
22435;SDS011;11385;50.822;4.324;2023-03-02T13:12:12;27.35;;;15.50;;
22435;SDS011;11385;50.822;4.324;2023-03-02T13:14:39;23.70;;;14.10;;
22435;SDS011;11385;50.822;4.324;2023-03-02T13:17:18;27.02;;;15.53;;
22435;SDS011;11385;50.822;4.324;2023-03-02T13:19:41;27.80;;;15.00;;
22435;SDS011;11385;50.822;4.324;2023-03-02T13:22:08;25.80;;;14.93;;
22435;SDS011;11385;50.822;4.324;2023-03-02T13:24:44;25.30;;;15.13;;
22435;SDS011;11385;50.822;4.324;2023-03-02T13:27:16;20.77;;;13.43;;
22435;SDS011;11385;50.822;4.324;2023-03-02T13:29:45;21.55;;;14.00;;
22435;SDS011;11385;50.822;4.324;2023-03-02T13:32:14;24.63;;;15.03;;
22435;SDS011;11385;50.822;4.324;2023-03-02T13:34:47;22.13;;;14.53;;
22435;SDS011;11385;50.822;4.324;2023-03-02T13:37:18;21.15;;;14.35;;
22435;SDS011;11385;50.822;4.324;2023-03-02T13:39:56;24.23;;;14.43;;
22435;SDS011;11385;50.822;4.324;2023-03-02T13:42:28;22.17;;;14.85;;
22435;SDS011;11385;50.822;4.324;2023-03-02T13:45:07;22.60;;;14.13;;
22435;SDS011;11385;50.822;4.324;2023-03-02T13:47:41;24.35;;;14.45;;
22435;SDS011;11385;50.822;4.324;2023-03-02T13:50:15;22.58;;;14.70;;
22435;SDS011;11385;50.822;4.324;2023-03-02T13:52:42;22.50;;;14.70;;
22435;SDS011;11385;50.822;4.324;2023-03-02T13:55:12;23.98;;;14.83;;
22435;SDS011;11385;50.822;4.324;2023-03-02T13:57:38;24.57;;;14.70;;
22435;SDS011;11385;50.822;4.324;2023-03-02T14:00:09;24.70;;;14.73;;
22435;SDS011;11385;50.822;4.324;2023-03-02T14:02:37;22.87;;;14.65;;
22435;SDS011;11385;50.822;4.324;2023-03-02T14:05:04;22.37;;;14.03;;
22435;SDS011;11385;50.822;4.324;2023-03-02T14:07:31;31.33;;;14.35;;
22435;SDS011;11385;50.822;4.324;2023-03-02T14:09:58;23.47;;;14.65;;
22435;SDS011;11385;50.822;4.324;2023-03-02T14:12:27;24.70;;;14.78;;
22435;SDS011;11385;50.822;4.324;2023-03-02T14:14:57;21.70;;;14.05;;
22435;SDS011;11385;50.822;4.324;2023-03-02T14:17:27;21.93;;;14.33;;
22435;SDS011;11385;50.822;4.324;2023-03-02T14:19:54;24.90;;;13.83;;
22435;SDS011;11385;50.822;4.324;2023-03-02T14:22:22;19.50;;;13.32;;
22435;SDS011;11385;50.822;4.324;2023-03-02T14:24:50;21.02;;;13.62;;
22435;SDS011;11385;50.822;4.324;2023-03-02T14:27:18;20.50;;;13.35;;
22435;SDS011;11385;50.822;4.324;2023-03-02T14:29:45;20.57;;;13.68;;
22435;SDS011;11385;50.822;4.324;2023-03-02T14:32:12;25.92;;;14.00;;
22435;SDS011;11385;50.822;4.324;2023-03-02T14:34:40;23.22;;;14.63;;
22435;SDS011;11385;50.822;4.324;2023-03-02T14:37:11;21.42;;;13.38;;
22435;SDS011;11385;50.822;4.324;2023-03-02T14:39:41;21.52;;;14.78;;
22435;SDS011;11385;50.822;4.324;2023-03-02T14:42:14;22.62;;;13.22;;
22435;SDS011;11385;50.822;4.324;2023-03-02T14:44:43;18.92;;;13.15;;
22435;SDS011;11385;50.822;4.324;2023-03-02T14:47:10;18.80;;;12.37;;
22435;SDS011;11385;50.822;4.324;2023-03-02T14:49:37;22.00;;;13.55;;
22435;SDS011;11385;50.822;4.324;2023-03-02T14:52:07;22.20;;;13.32;;
22435;SDS011;11385;50.822;4.324;2023-03-02T14:54:39;21.42;;;13.38;;
22435;SDS011;11385;50.822;4.324;2023-03-02T14:57:16;22.35;;;13.05;;